Creswell, North Carolina
Current Conditions -  °F | °C
As of 1:35 PM on Saturday 25 Oct 2014 (Local Time) from KEDE Reporting Station
Clear Clear  
Wind Chill: 67°   Ceiling: Unl
Heat Index: 67°   Visibility: 10mi
Dew Point: 48°   Wind: 5mph
Humidity: 50%   Direction: 240°WSW
Pressure: 29.94"   Gusts: NA
Location:  35.87°N, 76.39°W
Report Text: KEDE 251735Z AUTO 24004KT 10SM CLR 20/09 A2994 RMK AO2 T01950087
Loading
Personal Weather Stations






























Interactive Weather Map
Tropical Storm Tracking
New forecast layout! Learn more

10-Day Weather Forecast

Advertisements
Track Severe Weather on mobile